sensor_id;sensor_type;location;lat;lon;timestamp;P1;durP1;ratioP1;P2;durP2;ratioP2
60975;SDS011;46849;48.154;17.042;2022-12-07T00:01:44;4.32;;;3.10;;
60975;SDS011;46849;48.154;17.042;2022-12-07T00:04:30;4.45;;;2.97;;
60975;SDS011;46849;48.154;17.042;2022-12-07T00:07:14;3.65;;;2.65;;
60975;SDS011;46849;48.154;17.042;2022-12-07T00:09:59;3.90;;;2.60;;
60975;SDS011;46849;48.154;17.042;2022-12-07T00:12:43;3.67;;;2.60;;
60975;SDS011;46849;48.154;17.042;2022-12-07T00:15:28;4.82;;;2.90;;
60975;SDS011;46849;48.154;17.042;2022-12-07T00:18:14;3.78;;;2.75;;
60975;SDS011;46849;48.154;17.042;2022-12-07T00:20:59;4.95;;;3.20;;
60975;SDS011;46849;48.154;17.042;2022-12-07T00:23:46;5.43;;;3.42;;
60975;SDS011;46849;48.154;17.042;2022-12-07T00:26:35;5.22;;;3.40;;
60975;SDS011;46849;48.154;17.042;2022-12-07T00:29:23;5.15;;;2.97;;
60975;SDS011;46849;48.154;17.042;2022-12-07T00:32:08;4.18;;;3.08;;
60975;SDS011;46849;48.154;17.042;2022-12-07T00:34:52;4.57;;;3.13;;
60975;SDS011;46849;48.154;17.042;2022-12-07T00:37:37;4.38;;;2.97;;
60975;SDS011;46849;48.154;17.042;2022-12-07T00:40:22;4.70;;;3.33;;
60975;SDS011;46849;48.154;17.042;2022-12-07T00:43:06;4.78;;;3.63;;
60975;SDS011;46849;48.154;17.042;2022-12-07T00:45:51;6.25;;;4.10;;
60975;SDS011;46849;48.154;17.042;2022-12-07T00:48:36;4.63;;;3.03;;
60975;SDS011;46849;48.154;17.042;2022-12-07T00:51:22;5.80;;;3.90;;
60975;SDS011;46849;48.154;17.042;2022-12-07T00:54:08;6.32;;;4.13;;
60975;SDS011;46849;48.154;17.042;2022-12-07T00:56:54;4.47;;;3.60;;
60975;SDS011;46849;48.154;17.042;2022-12-07T00:59:38;6.70;;;4.47;;
60975;SDS011;46849;48.154;17.042;2022-12-07T01:02:23;6.40;;;4.22;;
60975;SDS011;46849;48.154;17.042;2022-12-07T01:05:08;5.30;;;3.25;;
60975;SDS011;46849;48.154;17.042;2022-12-07T01:07:52;7.30;;;4.50;;
60975;SDS011;46849;48.154;17.042;2022-12-07T01:10:37;9.10;;;5.28;;
60975;SDS011;46849;48.154;17.042;2022-12-07T01:13:22;7.65;;;5.35;;
60975;SDS011;46849;48.154;17.042;2022-12-07T01:16:07;6.55;;;4.25;;
60975;SDS011;46849;48.154;17.042;2022-12-07T01:18:53;7.00;;;4.10;;
60975;SDS011;46849;48.154;17.042;2022-12-07T01:21:40;7.00;;;4.55;;
60975;SDS011;46849;48.154;17.042;2022-12-07T01:24:24;7.78;;;4.88;;
60975;SDS011;46849;48.154;17.042;2022-12-07T01:27:10;9.57;;;5.32;;
60975;SDS011;46849;48.154;17.042;2022-12-07T01:29:54;8.10;;;5.43;;
60975;SDS011;46849;48.154;17.042;2022-12-07T01:32:39;7.85;;;5.43;;
60975;SDS011;46849;48.154;17.042;2022-12-07T01:35:23;8.10;;;5.20;;
60975;SDS011;46849;48.154;17.042;2022-12-07T01:38:08;8.63;;;5.38;;
60975;SDS011;46849;48.154;17.042;2022-12-07T01:40:53;7.78;;;5.47;;
60975;SDS011;46849;48.154;17.042;2022-12-07T01:47:09;8.68;;;5.07;;
60975;SDS011;46849;48.154;17.042;2022-12-07T01:49:54;6.85;;;5.13;;
60975;SDS011;46849;48.154;17.042;2022-12-07T01:52:38;9.13;;;6.38;;
60975;SDS011;46849;48.154;17.042;2022-12-07T01:55:24;7.45;;;4.88;;
60975;SDS011;46849;48.154;17.042;2022-12-07T01:58:09;10.00;;;6.15;;
60975;SDS011;46849;48.154;17.042;2022-12-07T02:00:55;8.43;;;5.57;;
60975;SDS011;46849;48.154;17.042;2022-12-07T02:03:41;7.93;;;5.53;;
60975;SDS011;46849;48.154;17.042;2022-12-07T02:06:27;12.88;;;6.72;;
60975;SDS011;46849;48.154;17.042;2022-12-07T02:09:11;10.38;;;6.95;;
60975;SDS011;46849;48.154;17.042;2022-12-07T02:11:56;11.77;;;7.10;;
60975;SDS011;46849;48.154;17.042;2022-12-07T02:14:41;9.27;;;6.25;;
60975;SDS011;46849;48.154;17.042;2022-12-07T02:17:32;10.50;;;7.47;;
60975;SDS011;46849;48.154;17.042;2022-12-07T02:20:28;9.43;;;6.80;;
60975;SDS011;46849;48.154;17.042;2022-12-07T02:32:40;13.40;;;8.45;;
60975;SDS011;46849;48.154;17.042;2022-12-07T02:35:44;12.05;;;7.72;;
60975;SDS011;46849;48.154;17.042;2022-12-07T02:38:37;12.52;;;7.70;;
60975;SDS011;46849;48.154;17.042;2022-12-07T02:41:29;15.32;;;9.48;;
60975;SDS011;46849;48.154;17.042;2022-12-07T02:44:23;12.98;;;8.15;;
60975;SDS011;46849;48.154;17.042;2022-12-07T02:47:11;14.80;;;9.50;;
60975;SDS011;46849;48.154;17.042;2022-12-07T02:49:59;15.57;;;9.38;;
60975;SDS011;46849;48.154;17.042;2022-12-07T02:52:47;11.20;;;7.88;;
60975;SDS011;46849;48.154;17.042;2022-12-07T02:55:34;13.57;;;9.32;;
60975;SDS011;46849;48.154;17.042;2022-12-07T03:01:49;15.50;;;9.35;;
60975;SDS011;46849;48.154;17.042;2022-12-07T03:07:27;13.98;;;8.77;;
60975;SDS011;46849;48.154;17.042;2022-12-07T03:10:28;14.77;;;9.98;;
60975;SDS011;46849;48.154;17.042;2022-12-07T03:13:28;17.30;;;10.10;;
60975;SDS011;46849;48.154;17.042;2022-12-07T03:19:15;15.05;;;9.60;;
60975;SDS011;46849;48.154;17.042;2022-12-07T03:22:05;14.95;;;9.65;;
60975;SDS011;46849;48.154;17.042;2022-12-07T03:25:00;15.43;;;9.60;;
60975;SDS011;46849;48.154;17.042;2022-12-07T03:30:42;13.73;;;9.18;;
60975;SDS011;46849;48.154;17.042;2022-12-07T03:33:44;15.25;;;9.43;;
60975;SDS011;46849;48.154;17.042;2022-12-07T03:36:43;14.45;;;8.75;;
60975;SDS011;46849;48.154;17.042;2022-12-07T03:39:36;13.23;;;8.48;;
60975;SDS011;46849;48.154;17.042;2022-12-07T03:42:29;13.13;;;9.00;;
60975;SDS011;46849;48.154;17.042;2022-12-07T03:45:15;14.35;;;9.65;;
60975;SDS011;46849;48.154;17.042;2022-12-07T03:57:10;16.20;;;9.75;;
60975;SDS011;46849;48.154;17.042;2022-12-07T03:59:56;14.48;;;10.00;;
60975;SDS011;46849;48.154;17.042;2022-12-07T04:02:47;15.00;;;9.65;;
60975;SDS011;46849;48.154;17.042;2022-12-07T04:08:42;15.10;;;10.00;;
60975;SDS011;46849;48.154;17.042;2022-12-07T04:11:27;16.48;;;9.75;;
60975;SDS011;46849;48.154;17.042;2022-12-07T04:14:11;15.43;;;10.38;;
60975;SDS011;46849;48.154;17.042;2022-12-07T04:17:02;14.57;;;10.07;;
60975;SDS011;46849;48.154;17.042;2022-12-07T04:19:47;16.77;;;10.18;;
60975;SDS011;46849;48.154;17.042;2022-12-07T04:22:38;15.65;;;10.63;;
60975;SDS011;46849;48.154;17.042;2022-12-07T04:25:23;14.93;;;9.88;;
60975;SDS011;46849;48.154;17.042;2022-12-07T04:28:12;13.25;;;9.10;;
60975;SDS011;46849;48.154;17.042;2022-12-07T04:30:57;14.27;;;9.25;;
60975;SDS011;46849;48.154;17.042;2022-12-07T04:33:43;15.00;;;9.88;;
60975;SDS011;46849;48.154;17.042;2022-12-07T04:36:28;15.20;;;9.30;;
60975;SDS011;46849;48.154;17.042;2022-12-07T04:39:22;14.55;;;9.55;;
60975;SDS011;46849;48.154;17.042;2022-12-07T04:42:08;14.52;;;9.95;;
60975;SDS011;46849;48.154;17.042;2022-12-07T04:44:57;13.70;;;9.10;;
60975;SDS011;46849;48.154;17.042;2022-12-07T04:48:03;15.15;;;9.90;;
60975;SDS011;46849;48.154;17.042;2022-12-07T04:51:08;13.05;;;9.13;;
60975;SDS011;46849;48.154;17.042;2022-12-07T04:53:56;13.35;;;8.73;;
60975;SDS011;46849;48.154;17.042;2022-12-07T04:56:42;14.18;;;9.10;;
60975;SDS011;46849;48.154;17.042;2022-12-07T04:59:27;14.15;;;9.23;;
60975;SDS011;46849;48.154;17.042;2022-12-07T05:02:15;13.25;;;9.32;;
60975;SDS011;46849;48.154;17.042;2022-12-07T05:05:03;15.48;;;9.52;;
60975;SDS011;46849;48.154;17.042;2022-12-07T05:07:49;13.52;;;9.25;;
60975;SDS011;46849;48.154;17.042;2022-12-07T05:10:36;12.90;;;8.85;;
60975;SDS011;46849;48.154;17.042;2022-12-07T05:13:21;11.93;;;7.90;;
60975;SDS011;46849;48.154;17.042;2022-12-07T05:16:07;14.57;;;9.07;;
60975;SDS011;46849;48.154;17.042;2022-12-07T05:18:52;14.32;;;9.43;;
60975;SDS011;46849;48.154;17.042;2022-12-07T05:21:37;14.15;;;9.32;;
60975;SDS011;46849;48.154;17.042;2022-12-07T05:24:23;14.32;;;9.23;;
60975;SDS011;46849;48.154;17.042;2022-12-07T05:27:07;12.90;;;8.52;;
60975;SDS011;46849;48.154;17.042;2022-12-07T05:29:52;13.05;;;8.73;;
60975;SDS011;46849;48.154;17.042;2022-12-07T05:32:37;14.23;;;9.45;;
60975;SDS011;46849;48.154;17.042;2022-12-07T05:35:22;13.98;;;9.35;;
60975;SDS011;46849;48.154;17.042;2022-12-07T05:38:07;12.40;;;8.38;;
60975;SDS011;46849;48.154;17.042;2022-12-07T05:40:53;12.80;;;8.40;;
60975;SDS011;46849;48.154;17.042;2022-12-07T05:43:40;13.82;;;7.88;;
60975;SDS011;46849;48.154;17.042;2022-12-07T05:46:25;12.55;;;7.60;;
60975;SDS011;46849;48.154;17.042;2022-12-07T05:49:09;17.08;;;8.63;;
60975;SDS011;46849;48.154;17.042;2022-12-07T05:51:54;12.90;;;8.25;;
60975;SDS011;46849;48.154;17.042;2022-12-07T05:54:39;12.85;;;8.77;;
60975;SDS011;46849;48.154;17.042;2022-12-07T05:57:23;13.10;;;7.93;;
60975;SDS011;46849;48.154;17.042;2022-12-07T06:00:13;12.32;;;8.00;;
60975;SDS011;46849;48.154;17.042;2022-12-07T06:02:59;11.90;;;8.10;;
60975;SDS011;46849;48.154;17.042;2022-12-07T06:05:46;12.43;;;8.43;;
60975;SDS011;46849;48.154;17.042;2022-12-07T06:08:30;12.68;;;8.07;;
60975;SDS011;46849;48.154;17.042;2022-12-07T06:11:15;15.93;;;9.02;;
60975;SDS011;46849;48.154;17.042;2022-12-07T06:14:19;12.98;;;8.30;;
60975;SDS011;46849;48.154;17.042;2022-12-07T06:17:05;13.95;;;8.77;;
60975;SDS011;46849;48.154;17.042;2022-12-07T06:19:51;13.07;;;8.02;;
60975;SDS011;46849;48.154;17.042;2022-12-07T06:22:36;14.05;;;8.90;;
60975;SDS011;46849;48.154;17.042;2022-12-07T06:25:23;13.45;;;7.97;;
60975;SDS011;46849;48.154;17.042;2022-12-07T06:28:10;14.35;;;8.02;;
60975;SDS011;46849;48.154;17.042;2022-12-07T06:30:58;11.60;;;7.80;;
60975;SDS011;46849;48.154;17.042;2022-12-07T06:33:45;12.05;;;8.00;;
60975;SDS011;46849;48.154;17.042;2022-12-07T06:36:31;11.95;;;7.63;;
60975;SDS011;46849;48.154;17.042;2022-12-07T06:39:15;12.63;;;8.05;;
60975;SDS011;46849;48.154;17.042;2022-12-07T06:42:00;12.00;;;8.07;;
60975;SDS011;46849;48.154;17.042;2022-12-07T06:44:45;12.02;;;7.82;;
60975;SDS011;46849;48.154;17.042;2022-12-07T06:47:30;12.77;;;8.48;;
60975;SDS011;46849;48.154;17.042;2022-12-07T06:50:15;11.95;;;8.30;;
60975;SDS011;46849;48.154;17.042;2022-12-07T06:53:04;11.07;;;7.45;;
60975;SDS011;46849;48.154;17.042;2022-12-07T06:55:50;11.48;;;8.05;;
60975;SDS011;46849;48.154;17.042;2022-12-07T06:58:35;15.25;;;7.00;;
60975;SDS011;46849;48.154;17.042;2022-12-07T07:01:19;12.07;;;7.50;;
60975;SDS011;46849;48.154;17.042;2022-12-07T07:04:04;11.50;;;7.60;;
60975;SDS011;46849;48.154;17.042;2022-12-07T07:06:50;10.98;;;7.38;;
60975;SDS011;46849;48.154;17.042;2022-12-07T07:09:35;10.95;;;7.28;;
60975;SDS011;46849;48.154;17.042;2022-12-07T07:12:20;10.77;;;7.30;;
60975;SDS011;46849;48.154;17.042;2022-12-07T07:15:05;11.25;;;7.32;;
60975;SDS011;46849;48.154;17.042;2022-12-07T07:17:50;11.57;;;6.57;;
60975;SDS011;46849;48.154;17.042;2022-12-07T07:20:35;12.27;;;7.32;;
60975;SDS011;46849;48.154;17.042;2022-12-07T07:23:21;11.23;;;6.93;;
60975;SDS011;46849;48.154;17.042;2022-12-07T07:26:06;9.60;;;6.63;;
60975;SDS011;46849;48.154;17.042;2022-12-07T07:28:51;9.77;;;6.10;;
60975;SDS011;46849;48.154;17.042;2022-12-07T07:31:36;11.23;;;7.00;;
60975;SDS011;46849;48.154;17.042;2022-12-07T07:34:22;12.20;;;6.63;;
60975;SDS011;46849;48.154;17.042;2022-12-07T07:37:07;10.52;;;6.80;;
60975;SDS011;46849;48.154;17.042;2022-12-07T07:39:53;10.13;;;6.95;;
60975;SDS011;46849;48.154;17.042;2022-12-07T07:42:38;9.68;;;5.88;;
60975;SDS011;46849;48.154;17.042;2022-12-07T07:45:24;11.60;;;6.82;;
60975;SDS011;46849;48.154;17.042;2022-12-07T07:48:14;13.57;;;6.57;;
60975;SDS011;46849;48.154;17.042;2022-12-07T07:51:16;15.75;;;6.63;;
60975;SDS011;46849;48.154;17.042;2022-12-07T07:54:02;11.00;;;6.47;;
60975;SDS011;46849;48.154;17.042;2022-12-07T07:56:47;10.13;;;6.35;;
60975;SDS011;46849;48.154;17.042;2022-12-07T07:59:32;11.02;;;6.63;;
60975;SDS011;46849;48.154;17.042;2022-12-07T08:02:18;10.70;;;6.80;;
60975;SDS011;46849;48.154;17.042;2022-12-07T08:05:04;11.23;;;6.30;;
60975;SDS011;46849;48.154;17.042;2022-12-07T08:07:51;10.55;;;6.55;;
60975;SDS011;46849;48.154;17.042;2022-12-07T08:10:35;10.10;;;6.45;;
60975;SDS011;46849;48.154;17.042;2022-12-07T08:13:21;10.30;;;6.00;;
60975;SDS011;46849;48.154;17.042;2022-12-07T08:16:07;11.35;;;6.75;;
60975;SDS011;46849;48.154;17.042;2022-12-07T08:18:53;9.55;;;6.35;;
60975;SDS011;46849;48.154;17.042;2022-12-07T08:21:39;11.65;;;6.22;;
60975;SDS011;46849;48.154;17.042;2022-12-07T08:24:23;9.90;;;5.57;;
60975;SDS011;46849;48.154;17.042;2022-12-07T08:27:09;9.30;;;6.03;;
60975;SDS011;46849;48.154;17.042;2022-12-07T08:29:53;9.18;;;6.30;;
60975;SDS011;46849;48.154;17.042;2022-12-07T08:32:38;10.20;;;6.78;;
60975;SDS011;46849;48.154;17.042;2022-12-07T08:35:23;8.85;;;5.50;;
60975;SDS011;46849;48.154;17.042;2022-12-07T08:38:09;9.73;;;5.63;;
60975;SDS011;46849;48.154;17.042;2022-12-07T08:40:54;10.10;;;5.55;;
60975;SDS011;46849;48.154;17.042;2022-12-07T08:43:40;9.55;;;6.30;;
60975;SDS011;46849;48.154;17.042;2022-12-07T08:46:35;9.75;;;6.50;;
60975;SDS011;46849;48.154;17.042;2022-12-07T08:49:33;9.27;;;5.57;;
60975;SDS011;46849;48.154;17.042;2022-12-07T08:52:22;10.10;;;5.63;;
60975;SDS011;46849;48.154;17.042;2022-12-07T08:55:07;10.00;;;5.97;;
60975;SDS011;46849;48.154;17.042;2022-12-07T08:57:55;9.93;;;5.72;;
60975;SDS011;46849;48.154;17.042;2022-12-07T09:00:41;8.85;;;5.82;;
60975;SDS011;46849;48.154;17.042;2022-12-07T09:03:27;10.95;;;5.80;;
60975;SDS011;46849;48.154;17.042;2022-12-07T09:06:12;11.40;;;6.13;;
60975;SDS011;46849;48.154;17.042;2022-12-07T09:08:58;10.68;;;6.57;;
60975;SDS011;46849;48.154;17.042;2022-12-07T09:11:45;9.60;;;6.75;;
60975;SDS011;46849;48.154;17.042;2022-12-07T09:14:30;11.60;;;7.00;;
60975;SDS011;46849;48.154;17.042;2022-12-07T09:17:15;12.32;;;7.05;;
60975;SDS011;46849;48.154;17.042;2022-12-07T09:20:00;9.80;;;5.78;;
60975;SDS011;46849;48.154;17.042;2022-12-07T09:22:45;7.82;;;5.00;;
60975;SDS011;46849;48.154;17.042;2022-12-07T09:25:29;8.10;;;5.00;;
60975;SDS011;46849;48.154;17.042;2022-12-07T09:28:14;7.75;;;5.28;;
60975;SDS011;46849;48.154;17.042;2022-12-07T09:30:59;10.48;;;5.65;;
60975;SDS011;46849;48.154;17.042;2022-12-07T09:33:44;9.18;;;5.80;;
60975;SDS011;46849;48.154;17.042;2022-12-07T09:36:29;10.48;;;5.78;;
60975;SDS011;46849;48.154;17.042;2022-12-07T09:39:13;9.15;;;5.28;;
60975;SDS011;46849;48.154;17.042;2022-12-07T09:41:58;9.00;;;5.53;;
60975;SDS011;46849;48.154;17.042;2022-12-07T09:44:47;9.07;;;5.80;;
60975;SDS011;46849;48.154;17.042;2022-12-07T09:47:32;7.43;;;4.55;;
60975;SDS011;46849;48.154;17.042;2022-12-07T09:50:19;9.13;;;5.65;;
60975;SDS011;46849;48.154;17.042;2022-12-07T09:53:13;6.78;;;4.85;;
60975;SDS011;46849;48.154;17.042;2022-12-07T09:56:16;6.88;;;4.50;;
60975;SDS011;46849;48.154;17.042;2022-12-07T09:59:02;6.13;;;3.70;;
60975;SDS011;46849;48.154;17.042;2022-12-07T10:01:49;6.35;;;4.10;;
60975;SDS011;46849;48.154;17.042;2022-12-07T10:04:35;6.63;;;4.22;;
60975;SDS011;46849;48.154;17.042;2022-12-07T10:07:21;6.32;;;3.60;;
60975;SDS011;46849;48.154;17.042;2022-12-07T10:10:12;5.55;;;3.85;;
60975;SDS011;46849;48.154;17.042;2022-12-07T10:13:03;5.25;;;3.45;;
60975;SDS011;46849;48.154;17.042;2022-12-07T10:15:54;4.55;;;3.15;;
60975;SDS011;46849;48.154;17.042;2022-12-07T10:18:41;4.50;;;2.97;;
60975;SDS011;46849;48.154;17.042;2022-12-07T10:21:26;4.50;;;2.90;;
60975;SDS011;46849;48.154;17.042;2022-12-07T10:26:55;2.92;;;2.20;;
60975;SDS011;46849;48.154;17.042;2022-12-07T10:29:41;3.63;;;2.47;;
60975;SDS011;46849;48.154;17.042;2022-12-07T10:32:34;3.47;;;2.10;;
60975;SDS011;46849;48.154;17.042;2022-12-07T10:35:22;3.55;;;2.60;;
60975;SDS011;46849;48.154;17.042;2022-12-07T10:38:16;3.60;;;1.88;;
60975;SDS011;46849;48.154;17.042;2022-12-07T10:41:07;3.63;;;1.98;;
60975;SDS011;46849;48.154;17.042;2022-12-07T10:43:56;2.70;;;1.92;;
60975;SDS011;46849;48.154;17.042;2022-12-07T10:52:56;2.78;;;2.20;;
60975;SDS011;46849;48.154;17.042;2022-12-07T10:59:20;3.53;;;2.40;;
60975;SDS011;46849;48.154;17.042;2022-12-07T11:05:27;3.15;;;2.10;;
60975;SDS011;46849;48.154;17.042;2022-12-07T11:11:43;2.83;;;1.83;;
60975;SDS011;46849;48.154;17.042;2022-12-07T11:15:15;6.75;;;2.00;;
60975;SDS011;46849;48.154;17.042;2022-12-07T11:24:12;2.47;;;1.85;;
60975;SDS011;46849;48.154;17.042;2022-12-07T11:36:55;2.45;;;1.52;;
60975;SDS011;46849;48.154;17.042;2022-12-07T11:39:42;3.83;;;1.70;;
60975;SDS011;46849;48.154;17.042;2022-12-07T11:42:36;3.08;;;1.60;;
60975;SDS011;46849;48.154;17.042;2022-12-07T11:45:29;2.55;;;1.90;;
60975;SDS011;46849;48.154;17.042;2022-12-07T11:48:20;3.05;;;1.75;;
60975;SDS011;46849;48.154;17.042;2022-12-07T11:51:13;2.40;;;1.90;;
60975;SDS011;46849;48.154;17.042;2022-12-07T11:54:24;2.70;;;1.70;;
60975;SDS011;46849;48.154;17.042;2022-12-07T11:57:15;2.17;;;1.60;;
60975;SDS011;46849;48.154;17.042;2022-12-07T12:00:05;2.97;;;1.60;;
60975;SDS011;46849;48.154;17.042;2022-12-07T12:02:58;4.20;;;1.75;;
60975;SDS011;46849;48.154;17.042;2022-12-07T12:05:48;2.25;;;1.55;;
60975;SDS011;46849;48.154;17.042;2022-12-07T12:08:38;2.58;;;1.60;;
60975;SDS011;46849;48.154;17.042;2022-12-07T12:21:02;2.90;;;1.70;;
60975;SDS011;46849;48.154;17.042;2022-12-07T12:23:56;2.75;;;1.70;;
60975;SDS011;46849;48.154;17.042;2022-12-07T12:26:49;3.13;;;1.55;;
60975;SDS011;46849;48.154;17.042;2022-12-07T12:29:38;3.33;;;2.20;;
60975;SDS011;46849;48.154;17.042;2022-12-07T12:35:40;3.72;;;2.15;;
60975;SDS011;46849;48.154;17.042;2022-12-07T12:50:49;4.15;;;2.30;;
60975;SDS011;46849;48.154;17.042;2022-12-07T12:57:21;2.83;;;1.63;;
60975;SDS011;46849;48.154;17.042;2022-12-07T13:00:20;3.42;;;1.65;;
60975;SDS011;46849;48.154;17.042;2022-12-07T13:03:17;2.25;;;1.23;;
60975;SDS011;46849;48.154;17.042;2022-12-07T13:06:31;1.90;;;1.42;;
60975;SDS011;46849;48.154;17.042;2022-12-07T13:09:29;2.88;;;1.98;;
60975;SDS011;46849;48.154;17.042;2022-12-07T13:24:34;1.95;;;1.42;;
60975;SDS011;46849;48.154;17.042;2022-12-07T13:39:37;2.88;;;1.80;;
60975;SDS011;46849;48.154;17.042;2022-12-07T13:55:01;3.00;;;1.90;;
60975;SDS011;46849;48.154;17.042;2022-12-07T14:06:46;2.58;;;1.67;;
60975;SDS011;46849;48.154;17.042;2022-12-07T14:09:52;1.92;;;1.25;;
60975;SDS011;46849;48.154;17.042;2022-12-07T14:12:41;2.45;;;1.50;;
60975;SDS011;46849;48.154;17.042;2022-12-07T14:15:28;3.20;;;1.92;;
60975;SDS011;46849;48.154;17.042;2022-12-07T14:18:25;2.97;;;1.80;;
60975;SDS011;46849;48.154;17.042;2022-12-07T14:21:16;2.35;;;1.20;;
60975;SDS011;46849;48.154;17.042;2022-12-07T14:27:14;2.40;;;1.33;;
60975;SDS011;46849;48.154;17.042;2022-12-07T14:30:15;3.05;;;1.90;;
60975;SDS011;46849;48.154;17.042;2022-12-07T14:33:02;2.72;;;1.70;;
60975;SDS011;46849;48.154;17.042;2022-12-07T14:35:48;2.78;;;1.63;;
60975;SDS011;46849;48.154;17.042;2022-12-07T14:38:34;3.30;;;1.45;;
60975;SDS011;46849;48.154;17.042;2022-12-07T14:41:55;2.22;;;1.73;;
60975;SDS011;46849;48.154;17.042;2022-12-07T14:44:57;2.72;;;1.83;;
60975;SDS011;46849;48.154;17.042;2022-12-07T14:47:47;3.50;;;1.90;;
60975;SDS011;46849;48.154;17.042;2022-12-07T14:50:35;3.85;;;2.13;;
60975;SDS011;46849;48.154;17.042;2022-12-07T14:53:27;2.50;;;1.60;;
60975;SDS011;46849;48.154;17.042;2022-12-07T14:56:28;2.55;;;1.50;;
60975;SDS011;46849;48.154;17.042;2022-12-07T14:59:14;2.33;;;1.60;;
60975;SDS011;46849;48.154;17.042;2022-12-07T15:02:02;2.72;;;1.65;;
60975;SDS011;46849;48.154;17.042;2022-12-07T15:04:48;4.15;;;2.65;;
60975;SDS011;46849;48.154;17.042;2022-12-07T15:07:57;2.90;;;2.13;;
60975;SDS011;46849;48.154;17.042;2022-12-07T15:10:42;2.88;;;1.83;;
60975;SDS011;46849;48.154;17.042;2022-12-07T15:13:49;3.63;;;2.45;;
60975;SDS011;46849;48.154;17.042;2022-12-07T15:16:53;5.90;;;3.00;;
60975;SDS011;46849;48.154;17.042;2022-12-07T15:19:38;4.18;;;2.95;;
60975;SDS011;46849;48.154;17.042;2022-12-07T15:22:24;6.38;;;3.20;;
60975;SDS011;46849;48.154;17.042;2022-12-07T15:25:12;4.82;;;3.15;;
60975;SDS011;46849;48.154;17.042;2022-12-07T15:27:57;3.85;;;2.53;;
60975;SDS011;46849;48.154;17.042;2022-12-07T15:30:43;4.38;;;3.15;;
60975;SDS011;46849;48.154;17.042;2022-12-07T15:33:28;5.53;;;3.22;;
60975;SDS011;46849;48.154;17.042;2022-12-07T15:36:19;5.75;;;3.65;;
60975;SDS011;46849;48.154;17.042;2022-12-07T15:39:09;4.15;;;3.00;;
60975;SDS011;46849;48.154;17.042;2022-12-07T15:41:56;4.88;;;3.22;;
60975;SDS011;46849;48.154;17.042;2022-12-07T15:44:46;5.93;;;3.30;;
60975;SDS011;46849;48.154;17.042;2022-12-07T15:47:51;4.78;;;2.90;;
60975;SDS011;46849;48.154;17.042;2022-12-07T15:50:40;5.70;;;3.70;;
60975;SDS011;46849;48.154;17.042;2022-12-07T15:53:27;5.80;;;3.35;;
60975;SDS011;46849;48.154;17.042;2022-12-07T15:56:12;6.05;;;3.30;;
60975;SDS011;46849;48.154;17.042;2022-12-07T15:58:57;6.50;;;3.58;;
60975;SDS011;46849;48.154;17.042;2022-12-07T16:01:42;6.40;;;4.20;;
60975;SDS011;46849;48.154;17.042;2022-12-07T16:04:27;6.63;;;4.30;;
60975;SDS011;46849;48.154;17.042;2022-12-07T16:07:14;4.60;;;3.28;;
60975;SDS011;46849;48.154;17.042;2022-12-07T16:09:59;6.40;;;4.03;;
60975;SDS011;46849;48.154;17.042;2022-12-07T16:12:44;6.20;;;3.85;;
60975;SDS011;46849;48.154;17.042;2022-12-07T16:15:29;7.13;;;4.32;;
60975;SDS011;46849;48.154;17.042;2022-12-07T16:18:14;6.20;;;4.25;;
60975;SDS011;46849;48.154;17.042;2022-12-07T16:20:59;5.80;;;3.83;;
60975;SDS011;46849;48.154;17.042;2022-12-07T16:23:45;6.90;;;4.20;;
60975;SDS011;46849;48.154;17.042;2022-12-07T16:26:30;6.38;;;4.20;;
60975;SDS011;46849;48.154;17.042;2022-12-07T16:29:17;6.10;;;3.85;;
60975;SDS011;46849;48.154;17.042;2022-12-07T16:32:02;7.90;;;4.75;;
60975;SDS011;46849;48.154;17.042;2022-12-07T16:34:47;6.43;;;4.13;;
60975;SDS011;46849;48.154;17.042;2022-12-07T16:37:32;8.15;;;4.88;;
60975;SDS011;46849;48.154;17.042;2022-12-07T16:40:18;7.00;;;4.28;;
60975;SDS011;46849;48.154;17.042;2022-12-07T16:43:02;7.50;;;4.70;;
60975;SDS011;46849;48.154;17.042;2022-12-07T16:45:47;6.55;;;4.55;;
60975;SDS011;46849;48.154;17.042;2022-12-07T16:48:34;6.90;;;3.90;;
60975;SDS011;46849;48.154;17.042;2022-12-07T16:51:20;7.72;;;4.68;;
60975;SDS011;46849;48.154;17.042;2022-12-07T16:54:05;7.05;;;4.15;;
60975;SDS011;46849;48.154;17.042;2022-12-07T16:56:53;6.68;;;4.30;;
60975;SDS011;46849;48.154;17.042;2022-12-07T16:59:38;6.72;;;4.28;;
60975;SDS011;46849;48.154;17.042;2022-12-07T17:02:23;7.95;;;4.40;;
60975;SDS011;46849;48.154;17.042;2022-12-07T17:05:08;5.75;;;4.15;;
60975;SDS011;46849;48.154;17.042;2022-12-07T17:07:53;7.50;;;4.10;;
60975;SDS011;46849;48.154;17.042;2022-12-07T17:10:40;7.43;;;4.70;;
60975;SDS011;46849;48.154;17.042;2022-12-07T17:13:27;6.40;;;4.05;;
60975;SDS011;46849;48.154;17.042;2022-12-07T17:16:33;6.75;;;4.45;;
60975;SDS011;46849;48.154;17.042;2022-12-07T17:19:19;8.00;;;4.78;;
60975;SDS011;46849;48.154;17.042;2022-12-07T17:22:04;7.40;;;4.43;;
60975;SDS011;46849;48.154;17.042;2022-12-07T17:24:49;6.28;;;4.30;;
60975;SDS011;46849;48.154;17.042;2022-12-07T17:27:34;8.02;;;4.25;;
60975;SDS011;46849;48.154;17.042;2022-12-07T17:30:20;8.32;;;4.10;;
60975;SDS011;46849;48.154;17.042;2022-12-07T17:33:08;5.93;;;3.78;;
60975;SDS011;46849;48.154;17.042;2022-12-07T17:36:12;7.40;;;3.88;;
60975;SDS011;46849;48.154;17.042;2022-12-07T17:39:14;6.50;;;4.18;;
60975;SDS011;46849;48.154;17.042;2022-12-07T17:42:21;7.15;;;4.28;;
60975;SDS011;46849;48.154;17.042;2022-12-07T17:45:24;7.35;;;4.50;;
60975;SDS011;46849;48.154;17.042;2022-12-07T17:48:40;6.70;;;4.20;;
60975;SDS011;46849;48.154;17.042;2022-12-07T17:51:26;6.55;;;4.13;;
60975;SDS011;46849;48.154;17.042;2022-12-07T17:54:30;5.68;;;4.00;;
60975;SDS011;46849;48.154;17.042;2022-12-07T17:57:18;5.95;;;3.92;;
60975;SDS011;46849;48.154;17.042;2022-12-07T18:00:04;8.32;;;4.20;;
60975;SDS011;46849;48.154;17.042;2022-12-07T18:02:59;6.43;;;4.03;;
60975;SDS011;46849;48.154;17.042;2022-12-07T18:06:11;6.97;;;4.30;;
60975;SDS011;46849;48.154;17.042;2022-12-07T18:09:13;7.38;;;4.28;;
60975;SDS011;46849;48.154;17.042;2022-12-07T18:11:59;6.07;;;3.80;;
60975;SDS011;46849;48.154;17.042;2022-12-07T18:14:45;7.00;;;3.95;;
60975;SDS011;46849;48.154;17.042;2022-12-07T18:17:39;6.07;;;4.10;;
60975;SDS011;46849;48.154;17.042;2022-12-07T18:20:25;8.13;;;4.35;;
60975;SDS011;46849;48.154;17.042;2022-12-07T18:23:10;7.10;;;4.05;;
60975;SDS011;46849;48.154;17.042;2022-12-07T18:25:57;7.00;;;4.50;;
60975;SDS011;46849;48.154;17.042;2022-12-07T18:32:04;7.15;;;4.60;;
60975;SDS011;46849;48.154;17.042;2022-12-07T18:34:56;6.88;;;4.50;;
60975;SDS011;46849;48.154;17.042;2022-12-07T18:38:06;6.10;;;4.10;;
60975;SDS011;46849;48.154;17.042;2022-12-07T18:40:52;5.80;;;3.92;;
60975;SDS011;46849;48.154;17.042;2022-12-07T18:43:45;6.72;;;4.57;;
60975;SDS011;46849;48.154;17.042;2022-12-07T18:46:36;5.82;;;3.78;;
60975;SDS011;46849;48.154;17.042;2022-12-07T18:49:24;7.65;;;4.75;;
60975;SDS011;46849;48.154;17.042;2022-12-07T18:52:08;6.57;;;4.53;;
60975;SDS011;46849;48.154;17.042;2022-12-07T18:54:56;6.80;;;4.40;;
60975;SDS011;46849;48.154;17.042;2022-12-07T18:57:47;6.68;;;4.70;;
60975;SDS011;46849;48.154;17.042;2022-12-07T19:00:41;6.80;;;4.25;;
60975;SDS011;46849;48.154;17.042;2022-12-07T19:03:26;7.53;;;4.57;;
60975;SDS011;46849;48.154;17.042;2022-12-07T19:06:15;9.45;;;4.95;;
60975;SDS011;46849;48.154;17.042;2022-12-07T19:09:11;7.85;;;4.65;;